Time;durP1;ratioP1;P1;durP2;ratioP2;P2;SDS_P1;SDS_P2;PMS_P1;PMS_P2;Temp;Humidity;BMP_temperature;BMP_pressure;BME280_temperature;BME280_humidity;BME280_pressure;Samples;Min_cycle;Max_cycle;Signal;HPM_P1;HPM_P2
2022/04/30 00:00:12;;;;;;;23.15;17.27;;;;;;;15.71;74.74;99852.41;4989850;28;20041;-73
2022/04/30 00:02:37;;;;;;;26.05;17.90;;;;;;;15.69;74.67;99857.59;4996318;28;20037;-74
2022/04/30 00:05:03;;;;;;;23.88;17.20;;;;;;;15.76;73.98;99856.97;4977014;28;20041;-74
2022/04/30 00:07:28;;;;;;;22.33;16.95;;;;;;;15.75;74.11;99850.50;4977027;28;20128;-74
2022/04/30 00:09:54;;;;;;;26.45;17.30;;;;;;;15.84;74.00;99865.25;4991645;28;20519;-74
2022/04/30 00:12:23;;;;;;;29.10;17.90;;;;;;;15.85;74.25;99864.06;4992492;28;20034;-73
2022/04/30 00:14:49;;;;;;;21.98;16.38;;;;;;;15.89;74.00;99861.34;4994315;28;20370;-74
2022/04/30 00:17:15;;;;;;;23.30;18.00;;;;;;;16.00;73.74;99868.13;4985953;28;20037;-74
2022/04/30 00:19:40;;;;;;;24.38;17.52;;;;;;;15.94;73.62;99854.66;4993024;28;20030;-74
2022/04/30 00:22:06;;;;;;;24.58;17.15;;;;;;;15.78;74.51;99860.25;4993223;28;20031;-74
2022/04/30 00:24:31;;;;;;;30.15;20.67;;;;;;;15.61;75.03;99862.19;4979953;28;20033;-74
2022/04/30 00:26:59;;;;;;;28.35;19.45;;;;;;;15.55;75.43;99872.91;4996758;28;20057;-74
2022/04/30 00:29:26;;;;;;;28.35;19.58;;;;;;;15.35;76.45;99868.31;4994483;28;20133;-74
2022/04/30 00:31:52;;;;;;;28.77;20.15;;;;;;;15.06;77.20;99873.06;4992057;28;20057;-74
2022/04/30 00:34:18;;;;;;;28.70;19.38;;;;;;;15.13;76.90;99864.84;4993774;28;20390;-74
2022/04/30 00:36:43;;;;;;;27.20;19.75;;;;;;;15.40;75.37;99857.59;4994057;28;20113;-74
2022/04/30 00:39:09;;;;;;;28.42;18.73;;;;;;;15.53;75.10;99869.63;4993315;28;20046;-73
2022/04/30 00:41:36;;;;;;;27.88;19.50;;;;;;;15.70;74.18;99867.69;4981833;28;20026;-74
2022/04/30 00:44:01;;;;;;;29.83;19.20;;;;;;;15.76;73.87;99874.69;4996983;28;20022;-74
2022/04/30 00:46:27;;;;;;;28.85;19.75;;;;;;;15.61;73.90;99862.19;4995320;28;20413;-74
2022/04/30 00:48:53;;;;;;;30.23;19.27;;;;;;;15.50;74.11;99849.78;5002806;28;20084;-74
2022/04/30 00:51:22;;;;;;;32.13;21.25;;;;;;;15.14;76.80;99858.03;4980208;28;20037;-74
2022/04/30 00:53:50;;;;;;;27.98;18.92;;;;;;;15.40;76.66;99854.78;4994581;28;20018;-73
2022/04/30 00:56:45;;;;;;;27.17;18.98;;;;;;;15.64;76.21;99852.19;4995630;28;20037;-74
2022/04/30 00:59:17;;;;;;;27.63;19.65;;;;;;;15.60;75.98;99845.66;4997750;28;20054;-74
2022/04/30 01:01:43;;;;;;;28.83;20.77;;;;;;;15.73;75.93;99850.03;4995215;28;20537;-74
2022/04/30 01:04:08;;;;;;;28.33;19.42;;;;;;;15.74;75.75;99851.66;4984038;28;20022;-74
2022/04/30 01:06:56;;;;;;;28.75;19.17;;;;;;;15.83;75.28;99843.88;5003127;28;20028;-73
2022/04/30 01:09:24;;;;;;;24.85;16.95;;;;;;;15.92;74.09;99857.81;4998596;28;20032;-74
2022/04/30 01:11:59;;;;;;;25.50;18.45;;;;;;;15.55;76.12;99846.72;4999702;28;20026;-74
2022/04/30 01:14:31;;;;;;;27.65;18.95;;;;;;;14.71;79.12;99830.16;4980811;28;20027;-74
2022/04/30 01:16:57;;;;;;;29.13;20.85;;;;;;;14.86;80.11;99841.91;4976988;28;20030;-74
2022/04/30 01:19:24;;;;;;;27.40;19.80;;;;;;;14.99;79.19;99843.53;4999720;28;20108;-74
2022/04/30 01:21:51;;;;;;;28.23;19.38;;;;;;;15.24;78.70;99839.78;4987176;28;20026;-74
2022/04/30 01:24:28;;;;;;;26.17;18.95;;;;;;;15.36;77.92;99836.94;4998577;28;20022;-74
2022/04/30 01:26:59;;;;;;;27.67;18.95;;;;;;;15.31;78.07;99842.81;4995951;28;20049;-74
2022/04/30 01:29:33;;;;;;;26.85;19.05;;;;;;;15.33;77.56;99845.31;4986035;28;20055;-73
2022/04/30 01:37:35;;;;;;;29.35;19.33;;;;;;;14.61;80.91;99836.28;4996935;28;20053;-73
2022/04/30 01:40:06;;;;;;;28.15;19.30;;;;;;;14.90;80.19;99845.66;4996449;28;20108;-74
2022/04/30 01:42:41;;;;;;;25.23;17.48;;;;;;;15.12;78.76;99840.66;5002758;28;20038;-74
2022/04/30 01:45:09;;;;;;;25.48;17.52;;;;;;;15.21;77.89;99834.88;4997072;28;20046;-74
2022/04/30 01:47:36;;;;;;;25.90;18.50;;;;;;;15.33;77.17;99832.00;5000647;28;20037;-74
2022/04/30 01:50:03;;;;;;;23.80;16.85;;;;;;;15.26;77.02;99824.19;4995973;28;20037;-74
2022/04/30 01:52:30;;;;;;;23.83;17.38;;;;;;;15.30;76.89;99827.91;4980611;28;20595;-74
2022/04/30 01:54:56;;;;;;;24.55;17.60;;;;;;;15.40;76.23;99831.41;4983141;28;20034;-74
2022/04/30 01:57:26;;;;;;;24.80;18.27;;;;;;;15.45;76.41;99828.34;4997772;28;20052;-74
2022/04/30 01:59:53;;;;;;;24.83;16.70;;;;;;;15.54;76.25;99833.81;4997456;28;20037;-74
2022/04/30 02:02:23;;;;;;;26.40;18.88;;;;;;;15.55;76.02;99835.44;4993721;28;20034;-73
2022/04/30 02:04:49;;;;;;;;;;;;;;;15.54;76.23;99828.16;4984760;28;20030;-74
2022/04/30 02:07:16;;;;;;;31.95;17.70;;;;;;;15.34;76.48;99827.22;4978099;28;19913;-74
2022/04/30 02:09:41;;;;;;;27.60;17.23;;;;;;;15.33;76.36;99820.75;4997705;28;20040;-73
2022/04/30 02:12:07;;;;;;;31.65;20.90;;;;;;;15.07;77.24;99829.63;4998869;28;20492;-74
2022/04/30 02:14:35;;;;;;;25.65;18.45;;;;;;;15.01;77.28;99821.44;4994692;28;20490;-74
2022/04/30 02:17:02;;;;;;;26.40;19.77;;;;;;;14.82;78.82;99832.50;4980184;28;20034;-74
2022/04/30 02:19:29;;;;;;;34.70;21.65;;;;;;;14.87;78.76;99830.28;4995560;28;20038;-73
2022/04/30 02:21:58;;;;;;;32.33;24.00;;;;;;;14.38;81.74;99833.13;4995947;28;20026;-74
2022/04/30 02:24:28;;;;;;;42.08;27.02;;;;;;;13.90;83.91;99831.59;4993034;28;20030;-73
2022/04/30 02:26:54;;;;;;;38.42;27.58;;;;;;;13.72;85.63;99839.38;4992339;28;20109;-74
2022/04/30 02:29:19;;;;;;;39.67;27.20;;;;;;;13.76;86.04;99831.09;4982083;28;20048;-74
2022/04/30 02:31:45;;;;;;;38.17;25.80;;;;;;;13.64;86.58;99834.66;4998575;28;20030;-73
2022/04/30 02:34:11;;;;;;;41.33;28.17;;;;;;;14.01;85.03;99839.56;4995576;28;20391;-73
2022/04/30 02:36:36;;;;;;;38.95;27.35;;;;;;;14.16;84.55;99830.44;4992250;28;20041;-74
2022/04/30 02:39:02;;;;;;;32.95;22.98;;;;;;;14.32;83.96;99835.34;4992570;28;20050;-73
2022/04/30 02:41:29;;;;;;;33.83;23.63;;;;;;;14.52;82.74;99827.16;4994035;28;20555;-74
2022/04/30 02:43:56;;;;;;;26.70;20.25;;;;;;;14.60;82.55;99837.47;4980817;28;20026;-73
2022/04/30 02:46:21;;;;;;;32.00;22.63;;;;;;;14.52;82.26;99835.59;4995607;28;20026;-73
2022/04/30 02:48:48;;;;;;;29.13;20.83;;;;;;;14.55;82.13;99838.53;4997526;28;20026;-74
2022/04/30 02:51:17;;;;;;;30.70;21.42;;;;;;;14.51;82.20;99831.13;4996427;28;20034;-74
2022/04/30 02:53:43;;;;;;;29.20;20.13;;;;;;;14.78;81.02;99840.03;4990195;28;20057;-74
2022/04/30 02:56:12;;;;;;;25.50;19.27;;;;;;;14.85;80.34;99834.66;4995218;28;20026;-74
2022/04/30 03:01:22;;;;;;;29.25;19.55;;;;;;;15.01;79.55;99831.88;4997540;28;20130;-74
2022/04/30 03:03:48;;;;;;;26.70;18.77;;;;;;;14.99;78.69;99835.06;4996163;28;20479;-74
2022/04/30 03:06:15;;;;;;;28.08;17.55;;;;;;;15.02;78.07;99827.88;4996643;28;20049;-74
2022/04/30 03:08:43;;;;;;;30.10;19.05;;;;;;;15.08;78.24;99823.66;4981157;28;20056;-73
2022/04/30 03:11:09;;;;;;;30.38;19.88;;;;;;;15.09;78.14;99830.94;4975509;28;20023;-74
2022/04/30 03:13:36;;;;;;;27.25;18.80;;;;;;;15.01;78.51;99820.63;4994445;28;21485;-74
2022/04/30 03:21:42;;;;;;;24.83;17.67;;;;;;;15.09;78.27;99825.28;4993511;28;20034;-74
2022/04/30 03:24:15;;;;;;;27.08;17.95;;;;;;;15.16;77.66;99827.50;4994571;28;20023;-74
2022/04/30 03:26:48;;;;;;;28.88;18.27;;;;;;;15.18;77.29;99827.94;4995679;28;20029;-74
2022/04/30 03:29:15;;;;;;;29.25;18.55;;;;;;;15.18;77.44;99830.78;4992245;28;20026;-74
2022/04/30 03:31:42;;;;;;;25.65;18.33;;;;;;;15.03;77.53;99829.56;4994141;28;20117;-74
2022/04/30 03:34:15;;;;;;;30.77;18.35;;;;;;;14.96;78.10;99832.97;4995310;28;20021;-74
2022/04/30 03:36:42;;;;;;;27.98;18.00;;;;;;;15.05;78.02;99834.81;4996307;28;20490;-74
2022/04/30 03:39:09;;;;;;;29.52;19.35;;;;;;;15.07;77.86;99838.09;5005896;28;20047;-74
2022/04/30 03:41:35;;;;;;;25.80;17.70;;;;;;;15.14;78.22;99835.50;4996372;28;20026;-74
2022/04/30 03:44:01;;;;;;;25.30;18.45;;;;;;;14.83;78.73;99832.16;4985461;28;20141;-74
2022/04/30 03:46:27;;;;;;;29.80;18.90;;;;;;;14.95;78.67;99834.13;4996519;28;20408;-74
2022/04/30 03:48:56;;;;;;;25.27;16.70;;;;;;;15.01;77.80;99838.34;4982208;28;20029;-73
2022/04/30 03:51:23;;;;;;;26.90;18.65;;;;;;;15.05;77.81;99832.81;4996921;28;20613;-74
2022/04/30 03:53:49;;;;;;;33.92;19.48;;;;;;;15.06;78.00;99840.09;4993675;28;20054;-73
2022/04/30 03:56:19;;;;;;;24.58;16.75;;;;;;;14.96;78.12;99840.59;4996730;28;20507;-74
2022/04/30 03:58:47;;;;;;;28.65;19.00;;;;;;;14.83;78.06;99836.97;4994553;28;20025;-73
2022/04/30 04:01:13;;;;;;;25.25;17.63;;;;;;;14.94;78.12;99842.94;4981861;28;20096;-74
2022/04/30 04:03:40;;;;;;;24.85;17.70;;;;;;;14.95;77.66;99845.38;4996458;28;20023;-74
2022/04/30 04:06:07;;;;;;;27.63;18.63;;;;;;;14.99;77.25;99853.97;4979425;28;20389;-74
2022/04/30 04:08:34;;;;;;;26.92;18.80;;;;;;;14.91;77.37;99854.94;4993890;28;20161;-74
2022/04/30 04:11:00;;;;;;;24.25;17.30;;;;;;;14.95;77.76;99867.91;4993537;28;20030;-74
2022/04/30 04:18:55;;;;;;;29.00;20.58;;;;;;;14.84;78.19;99856.34;4998610;28;20428;-74
2022/04/30 04:21:21;;;;;;;28.65;19.00;;;;;;;14.83;77.92;99848.22;4994105;28;20084;-73
2022/04/30 04:26:31;;;;;;;27.95;20.15;;;;;;;14.80;78.59;99863.03;4996607;28;20088;-74
2022/04/30 04:28:56;;;;;;;38.50;22.60;;;;;;;14.48;79.37;99854.34;4991912;28;20026;-74
2022/04/30 04:31:25;;;;;;;33.20;22.20;;;;;;;14.64;78.46;99868.53;4993538;28;20019;-73
2022/04/30 04:33:51;;;;;;;36.30;23.63;;;;;;;14.50;78.65;99868.91;4988762;28;20085;-74
2022/04/30 04:36:17;;;;;;;34.88;21.73;;;;;;;14.57;78.16;99869.94;4992615;28;20476;-73
2022/04/30 04:38:43;;;;;;;32.67;21.85;;;;;;;14.68;77.94;99875.09;4994920;28;20497;-74
2022/04/30 04:41:09;;;;;;;33.40;22.02;;;;;;;14.72;77.77;99864.81;4994470;28;20049;-74
2022/04/30 04:43:34;;;;;;;38.55;20.73;;;;;;;14.74;78.12;99866.09;4991536;28;20041;-74
2022/04/30 04:46:02;;;;;;;33.97;22.35;;;;;;;14.69;77.93;99862.66;4991676;28;20030;-73
2022/04/30 04:48:29;;;;;;;32.72;22.70;;;;;;;14.69;78.34;99869.09;4994664;28;20590;-73
2022/04/30 04:50:54;;;;;;;32.80;22.80;;;;;;;14.66;78.08;99872.63;4997193;28;20120;-74
2022/04/30 04:53:20;;;;;;;35.28;21.95;;;;;;;14.64;78.37;99875.00;4993280;28;20105;-74
2022/04/30 04:55:46;;;;;;;30.95;20.55;;;;;;;14.65;78.17;99870.16;4995003;28;20038;-74
2022/04/30 04:58:12;;;;;;;32.17;21.27;;;;;;;14.62;77.77;99877.34;4978105;28;20109;-74
2022/04/30 05:00:37;;;;;;;33.90;23.05;;;;;;;14.53;78.58;99877.44;4993212;28;20028;-74
2022/04/30 05:03:03;;;;;;;33.35;23.95;;;;;;;14.52;78.82;99877.81;4976772;28;20405;-74
2022/04/30 05:05:28;;;;;;;30.70;22.60;;;;;;;14.59;78.69;99886.47;4992372;28;20418;-74
2022/04/30 05:07:54;;;;;;;30.02;23.17;;;;;;;14.57;78.24;99880.38;4977112;28;20036;-74
2022/04/30 05:10:19;;;;;;;32.85;21.00;;;;;;;14.51;78.49;99878.97;4980973;28;20117;-73
2022/04/30 05:12:46;;;;;;;32.58;21.70;;;;;;;14.57;78.28;99880.38;4973944;28;20035;-73
2022/04/30 05:15:12;;;;;;;33.28;23.25;;;;;;;14.72;78.39;99884.50;4993271;28;20033;-78
2022/04/30 05:17:38;;;;;;;32.67;23.25;;;;;;;14.70;78.33;99887.63;4987032;28;20148;-78
2022/04/30 05:20:05;;;;;;;34.40;21.20;;;;;;;14.73;78.23;99891.78;4995176;28;20195;-78
2022/04/30 05:22:30;;;;;;;35.60;23.35;;;;;;;14.70;78.18;99895.28;4977282;28;20088;-82
2022/04/30 05:24:56;;;;;;;32.30;22.10;;;;;;;14.69;77.10;99885.19;4993658;28;20034;-76
2022/04/30 05:27:22;;;;;;;32.33;22.48;;;;;;;14.54;77.94;99889.53;4994656;28;20132;-79
2022/04/30 05:29:47;;;;;;;30.60;21.48;;;;;;;14.45;78.15;99895.28;4987722;28;20161;-81
2022/04/30 05:32:16;;;;;;;33.08;22.52;;;;;;;14.39;78.38;99903.13;4999723;28;20053;-84
2022/04/30 05:34:43;;;;;;;32.33;22.80;;;;;;;14.52;78.06;99903.94;5002207;28;20036;-82
2022/04/30 05:37:08;;;;;;;31.00;21.70;;;;;;;14.45;77.55;99907.34;4985593;28;20053;-83
2022/04/30 05:39:34;;;;;;;31.40;20.73;;;;;;;14.53;78.15;99904.78;4985643;28;21025;-81
2022/04/30 05:41:59;;;;;;;28.13;21.13;;;;;;;14.58;77.87;99911.00;4998930;28;20037;-78
2022/04/30 05:44:25;;;;;;;36.70;24.10;;;;;;;14.48;78.06;99907.81;5004320;28;20034;-77
2022/04/30 05:46:50;;;;;;;31.65;20.75;;;;;;;14.52;78.26;99900.31;4985778;28;20030;-79
2022/04/30 05:49:16;;;;;;;32.97;21.90;;;;;;;14.60;77.56;99911.47;4996459;28;20045;-79
2022/04/30 05:51:42;;;;;;;30.35;22.05;;;;;;;14.63;77.79;99898.69;5000374;28;20037;-79
2022/04/30 05:54:07;;;;;;;28.80;21.45;;;;;;;14.74;76.84;99908.34;4994936;28;20026;-76
2022/04/30 05:56:33;;;;;;;33.75;22.83;;;;;;;14.76;77.07;99909.97;4993424;28;20117;-78
2022/04/30 05:58:59;;;;;;;44.55;31.10;;;;;;;14.44;77.34;99916.97;4993910;28;20100;-77
2022/04/30 06:01:25;;;;;;;33.60;22.17;;;;;;;14.69;77.88;99918.97;4996495;28;20042;-77
2022/04/30 06:03:51;;;;;;;29.25;21.77;;;;;;;14.87;76.80;99913.94;4979168;28;20050;-78
2022/04/30 06:06:19;;;;;;;29.65;20.80;;;;;;;15.09;76.07;99907.00;5001426;28;20034;-82
2022/04/30 06:08:45;;;;;;;30.45;21.77;;;;;;;15.18;75.71;99904.03;4988682;28;20049;-82
2022/04/30 06:11:11;;;;;;;31.98;20.60;;;;;;;15.29;75.55;99910.81;4995822;28;20029;-82
2022/04/30 06:13:37;;;;;;;31.17;20.83;;;;;;;15.22;74.46;99904.97;4976195;28;20033;-81
2022/04/30 06:16:03;;;;;;;30.45;20.90;;;;;;;15.21;74.85;99914.59;4999043;28;20033;-81
2022/04/30 06:18:28;;;;;;;30.52;20.75;;;;;;;15.28;74.33;99909.16;4981967;28;20038;-82
2022/04/30 06:20:54;;;;;;;28.88;20.67;;;;;;;15.40;74.26;99915.94;4982957;28;20038;-83
2022/04/30 06:23:20;;;;;;;30.75;21.83;;;;;;;14.81;75.90;99910.56;4996472;28;20029;-76
2022/04/30 06:25:46;;;;;;;30.70;22.10;;;;;;;15.16;74.96;99904.41;4984986;28;20026;-77
2022/04/30 06:28:13;;;;;;;32.55;22.38;;;;;;;15.38;74.59;99907.03;4997176;28;20109;-82
2022/04/30 06:30:40;;;;;;;30.73;23.23;;;;;;;15.25;74.89;99918.34;4996786;28;20038;-83
2022/04/30 06:33:06;;;;;;;30.98;21.58;;;;;;;15.08;75.05;99898.88;4997725;28;20665;-82
2022/04/30 06:35:32;;;;;;;35.55;21.90;;;;;;;15.09;74.68;99906.19;4981808;28;20536;-82
2022/04/30 06:37:58;;;;;;;31.35;21.85;;;;;;;15.30;74.17;99901.19;4994095;28;20039;-82
2022/04/30 06:40:23;;;;;;;36.70;23.42;;;;;;;15.44;73.92;99911.22;4994045;28;20057;-82
2022/04/30 06:42:49;;;;;;;29.80;22.58;;;;;;;15.52;74.76;99896.19;4995377;28;20030;-81
2022/04/30 06:45:16;;;;;;;27.90;21.00;;;;;;;15.67;73.52;99905.88;4994153;28;20030;-82
2022/04/30 06:47:43;;;;;;;34.92;21.80;;;;;;;15.36;73.50;99915.03;5005442;28;20030;-83
2022/04/30 06:50:09;;;;;;;33.53;21.75;;;;;;;15.48;74.04;99900.91;5011066;28;20132;-84
2022/04/30 06:57:06;;;;;;;32.38;21.63;;;;;;;14.87;75.65;99916.78;4992420;28;20118;-83
2022/04/30 06:58:06;;;;;;;29.83;22.77;;;;;;;14.68;75.68;99903.25;4999558;28;20109;-82
2022/04/30 07:03:16;;;;;;;33.70;22.58;;;;;;;15.18;73.87;99889.13;5000070;28;20104;-82
2022/04/30 07:05:41;;;;;;;35.03;21.20;;;;;;;15.39;73.48;99908.69;4999522;28;20026;-82
2022/04/30 07:08:07;;;;;;;31.88;22.13;;;;;;;15.81;73.34;99897.00;4990774;28;20288;-82
2022/04/30 07:10:32;;;;;;;33.55;21.95;;;;;;;15.66;73.06;99900.56;4976760;28;20022;-81
2022/04/30 07:12:58;;;;;;;31.52;22.33;;;;;;;16.02;72.95;99889.50;5005489;28;20519;-82
2022/04/30 07:15:23;;;;;;;30.48;21.50;;;;;;;15.79;73.12;99892.91;5000768;28;20566;-82
2022/04/30 07:17:49;;;;;;;36.80;22.17;;;;;;;16.05;72.17;99909.38;4990819;28;20216;-83
2022/04/30 07:20:16;;;;;;;35.00;23.08;;;;;;;16.15;70.19;99893.91;4996323;28;20022;-89
2022/04/30 07:22:44;;;;;;;37.67;24.27;;;;;;;16.13;70.06;99894.25;5012220;28;20046;-84
2022/04/30 07:25:11;;;;;;;40.45;24.58;;;;;;;15.93;71.09;99889.69;4965823;28;20197;-84
2022/04/30 07:27:36;;;;;;;37.08;25.65;;;;;;;16.06;70.19;99896.06;4993699;28;20030;-82
2022/04/30 07:30:06;;;;;;;37.80;25.08;;;;;;;16.42;70.53;99897.00;4988532;28;20036;-80
2022/04/30 07:32:31;;;;;;;37.92;27.05;;;;;;;16.51;69.60;99900.44;5005048;28;20036;-80
2022/04/30 07:34:57;;;;;;;43.45;29.88;;;;;;;16.68;69.10;99896.44;4993082;28;20109;-80
2022/04/30 07:37:23;;;;;;;44.08;30.48;;;;;;;16.51;67.43;99893.97;4996246;28;20053;-82
2022/04/30 07:39:48;;;;;;;50.47;30.25;;;;;;;16.27;67.30;99896.63;4997048;28;20034;-79
2022/04/30 07:42:14;;;;;;;40.20;28.65;;;;;;;16.73;68.71;99894.50;4999511;28;20045;-80
2022/04/30 07:44:39;;;;;;;40.45;29.98;;;;;;;16.83;64.97;99893.94;4995224;28;20033;-78
2022/04/30 07:47:08;;;;;;;50.70;29.88;;;;;;;17.07;64.56;99897.75;4997683;28;20196;-85
2022/04/30 07:49:34;;;;;;;37.83;26.30;;;;;;;17.39;64.74;99903.28;5008050;28;20026;-80
2022/04/30 07:52:00;;;;;;;35.47;25.45;;;;;;;17.44;63.73;99883.19;4993620;28;20087;-88
2022/04/30 07:54:26;;;;;;;35.72;25.42;;;;;;;17.52;61.85;99887.00;4993119;28;20401;-76
2022/04/30 07:56:53;;;;;;;35.92;24.35;;;;;;;17.45;62.42;99884.03;4992498;28;20026;-82
2022/04/30 07:59:21;;;;;;;31.33;23.42;;;;;;;17.49;61.01;99885.72;4989674;28;20030;-80
2022/04/30 08:01:47;;;;;;;35.95;23.73;;;;;;;17.86;61.90;99890.09;5010163;28;20087;-81
2022/04/30 08:04:13;;;;;;;33.42;21.80;;;;;;;17.78;60.65;99883.47;4997925;28;20121;-86
2022/04/30 08:06:38;;;;;;;28.63;21.67;;;;;;;18.12;61.63;99877.25;4976194;28;20117;-85
2022/04/30 08:09:04;;;;;;;29.88;21.35;;;;;;;18.31;60.03;99887.69;4981006;28;20048;-79
2022/04/30 08:11:29;;;;;;;22.55;17.92;;;;;;;18.04;57.63;99875.47;4975492;28;20026;-82
2022/04/30 08:13:55;;;;;;;26.23;20.45;;;;;;;18.09;57.29;99887.31;4980668;28;20117;-83
2022/04/30 08:16:21;;;;;;;25.27;19.33;;;;;;;18.02;57.22;99889.16;4993059;28;20041;-83
2022/04/30 08:18:46;;;;;;;23.63;18.95;;;;;;;17.45;57.50;99886.84;4993140;28;20054;-83
2022/04/30 08:21:12;;;;;;;29.23;19.95;;;;;;;17.16;59.74;99884.22;5012366;28;20053;-84
2022/04/30 08:23:37;;;;;;;31.90;20.02;;;;;;;17.10;60.53;99885.69;5004386;28;20024;-83
2022/04/30 08:26:05;;;;;;;18.23;15.82;;;;;;;17.73;58.91;99878.09;4985225;28;20018;-84
2022/04/30 08:28:31;;;;;;;19.95;15.68;;;;;;;17.90;56.47;99859.84;5009031;28;20469;-84
2022/04/30 08:30:58;;;;;;;21.52;13.68;;;;;;;17.87;54.69;99854.13;4991121;28;20109;-82
2022/04/30 08:33:23;;;;;;;21.10;14.60;;;;;;;18.17;57.43;99864.81;4987325;28;20022;-84
2022/04/30 08:35:49;;;;;;;19.08;13.10;;;;;;;18.43;54.29;99868.88;5000960;28;20537;-77
2022/04/30 08:38:14;;;;;;;15.43;11.93;;;;;;;18.55;52.71;99860.16;5002538;28;20492;-79
2022/04/30 08:40:44;;;;;;;19.73;14.20;;;;;;;18.67;51.95;99865.63;4992470;28;20101;-81
2022/04/30 08:43:14;;;;;;;14.73;12.57;;;;;;;18.84;53.62;99860.63;4993606;28;20018;-84
2022/04/30 08:45:41;;;;;;;;;;;;;;;19.21;52.65;99853.44;5005577;28;20481;-79
2022/04/30 08:48:08;;;;;;;16.80;13.60;;;;;;;19.18;52.10;99863.53;5006862;28;19910;-84
2022/04/30 08:50:34;;;;;;;16.92;14.00;;;;;;;19.36;53.66;99852.44;4990838;28;20041;-80
2022/04/30 08:53:00;;;;;;;16.50;12.77;;;;;;;19.48;49.76;99851.38;4991648;28;20031;-78
2022/04/30 08:55:27;;;;;;;17.55;13.68;;;;;;;19.32;49.92;99850.78;5010068;28;20408;-81
2022/04/30 08:57:53;;;;;;;19.10;13.20;;;;;;;19.40;50.07;99854.50;4993457;28;20034;-78
2022/04/30 09:00:20;;;;;;;18.20;12.68;;;;;;;19.25;51.02;99850.66;4991643;28;20085;-77
2022/04/30 09:02:50;;;;;;;21.38;13.07;;;;;;;19.42;51.11;99841.56;4992876;28;20748;-76
2022/04/30 09:05:16;;;;;;;17.48;12.40;;;;;;;19.49;49.81;99838.00;5001902;28;20018;-76
2022/04/30 09:07:51;;;;;;;16.35;12.68;;;;;;;19.42;49.46;99835.88;5006813;28;20125;-77
2022/04/30 09:10:21;;;;;;;16.13;12.55;;;;;;;19.47;48.97;99835.56;5015423;28;20476;-79
2022/04/30 09:12:47;;;;;;;16.63;12.52;;;;;;;19.63;47.10;99837.34;5014655;28;20022;-78
2022/04/30 09:15:16;;;;;;;14.82;12.43;;;;;;;19.53;48.47;99826.69;4995944;28;20076;-77
2022/04/30 09:17:41;;;;;;;20.15;13.57;;;;;;;19.16;50.13;99828.28;5014204;28;20034;-77
2022/04/30 09:20:07;;;;;;;15.23;12.20;;;;;;;19.41;49.87;99827.78;4996570;28;20072;-77
2022/04/30 09:22:35;;;;;;;18.27;13.68;;;;;;;19.56;49.00;99828.78;5014144;28;20022;-79
2022/04/30 09:25:09;;;;;;;17.35;12.57;;;;;;;19.69;48.92;99826.47;5012764;28;20045;-78
2022/04/30 09:27:52;;;;;;;16.75;12.15;;;;;;;19.66;48.31;99825.22;4995995;28;20053;-78
2022/04/30 09:30:20;;;;;;;15.82;12.15;;;;;;;19.85;48.46;99820.56;5015019;28;20025;-77
2022/04/30 09:32:57;;;;;;;15.38;13.15;;;;;;;19.86;48.31;99822.19;5014905;28;20093;-79
2022/04/30 09:38:07;;;;;;;15.90;12.82;;;;;;;19.79;47.74;99814.41;5014814;28;20077;-78
2022/04/30 09:40:32;;;;;;;16.98;13.77;;;;;;;19.86;47.49;99814.50;4996037;28;20437;-76
2022/04/30 09:43:00;;;;;;;17.88;13.07;;;;;;;19.76;47.57;99813.16;4977777;28;20120;-76
2022/04/30 09:45:31;;;;;;;20.30;13.48;;;;;;;19.71;47.71;99809.84;4995035;28;20022;-76
2022/04/30 09:53:56;;;;;;;15.25;13.23;;;;;;;20.02;48.49;99807.78;4995318;28;20056;-76
2022/04/30 09:56:38;;;;;;;15.95;13.23;;;;;;;19.87;46.43;99793.41;4995354;28;20073;-76
2022/04/30 09:59:10;;;;;;;16.23;10.65;;;;;;;20.26;45.55;99789.28;4994810;28;20105;-75
2022/04/30 10:01:37;;;;;;;12.10;9.60;;;;;;;20.05;43.44;99790.78;4994926;28;20033;-76
2022/04/30 10:04:10;;;;;;;11.27;8.50;;;;;;;20.38;43.61;99784.50;4994875;28;20453;-77
2022/04/30 10:06:45;;;;;;;12.45;10.27;;;;;;;20.40;43.56;99793.47;4994982;28;20044;-76
2022/04/30 10:09:14;;;;;;;15.48;10.45;;;;;;;20.58;43.46;99783.03;4995002;28;20065;-76
2022/04/30 10:12:02;;;;;;;18.83;10.48;;;;;;;20.54;42.90;99787.06;4977274;28;20057;-77
2022/04/30 10:14:49;;;;;;;14.60;9.57;;;;;;;20.65;43.71;99781.47;4977292;28;20084;-76
2022/04/30 10:17:20;;;;;;;12.07;9.63;;;;;;;20.82;43.42;99766.56;4975799;28;20026;-76
2022/04/30 10:20:01;;;;;;;9.77;8.60;;;;;;;20.70;41.90;99764.84;4994529;28;20027;-76
2022/04/30 10:22:27;;;;;;;11.48;9.35;;;;;;;20.65;40.76;99765.22;4994483;28;20514;-76
2022/04/30 10:24:57;;;;;;;10.73;9.60;;;;;;;20.44;41.52;99760.22;4994426;28;20093;-76
2022/04/30 10:27:24;;;;;;;11.60;9.93;;;;;;;20.75;42.36;99763.63;4976974;28;20120;-75
2022/04/30 10:29:57;;;;;;;11.00;8.80;;;;;;;21.11;41.80;99775.22;4994524;28;20156;-76
2022/04/30 10:32:31;;;;;;;11.68;9.52;;;;;;;20.73;41.15;99758.38;4976917;28;20030;-77
2022/04/30 10:34:58;;;;;;;9.20;8.30;;;;;;;20.82;40.37;99769.41;4994596;28;20026;-77
2022/04/30 10:37:38;;;;;;;9.65;8.48;;;;;;;20.87;41.88;99757.63;4976443;28;20042;-76
2022/04/30 10:40:04;;;;;;;13.93;9.07;;;;;;;20.96;40.41;99757.28;4994280;28;20019;-76
2022/04/30 10:42:39;;;;;;;11.20;9.73;;;;;;;21.16;40.42;99757.78;4976564;28;20201;-76
2022/04/30 10:45:07;;;;;;;13.48;8.68;;;;;;;20.79;40.84;99757.97;4992920;28;20030;-76
2022/04/30 10:47:33;;;;;;;8.00;7.20;;;;;;;21.38;40.54;99757.03;5009276;28;20030;-76
2022/04/30 10:49:58;;;;;;;8.95;7.50;;;;;;;21.52;39.45;99754.19;5013674;28;20029;-76
2022/04/30 10:52:26;;;;;;;9.95;7.75;;;;;;;21.42;40.26;99760.72;4995868;28;20026;-76
2022/04/30 10:54:58;;;;;;;10.23;8.70;;;;;;;21.04;41.13;99752.44;5013603;28;20074;-76
2022/04/30 10:57:23;;;;;;;9.88;8.82;;;;;;;21.21;40.94;99750.88;5013590;28;20025;-76
2022/04/30 11:00:01;;;;;;;9.68;8.68;;;;;;;21.17;40.44;99756.56;5013608;28;20022;-76
2022/04/30 11:02:32;;;;;;;10.65;8.23;;;;;;;21.22;40.21;99749.66;5013540;28;20480;-76
2022/04/30 11:04:58;;;;;;;11.27;8.15;;;;;;;21.45;40.24;99746.47;5013321;28;20428;-76
2022/04/30 11:07:27;;;;;;;13.35;8.50;;;;;;;21.69;40.32;99738.41;5013137;28;20030;-76
2022/04/30 11:09:52;;;;;;;11.35;7.10;;;;;;;21.91;38.92;99738.44;5012994;28;20026;-76
2022/04/30 11:12:18;;;;;;;9.88;8.40;;;;;;;21.93;38.54;99733.13;5013203;28;20037;-76
2022/04/30 11:14:47;;;;;;;11.40;7.35;;;;;;;21.94;37.47;99725.41;5013080;28;20382;-76
2022/04/30 11:17:13;;;;;;;8.53;7.27;;;;;;;22.28;38.01;99733.53;5013215;28;20057;-76
2022/04/30 11:19:42;;;;;;;8.32;6.45;;;;;;;22.29;37.99;99723.75;4995399;28;20654;-76
2022/04/30 11:22:09;;;;;;;7.03;6.33;;;;;;;22.28;36.61;99722.94;5012984;28;20034;-76
2022/04/30 11:24:35;;;;;;;9.00;6.60;;;;;;;22.27;35.43;99724.16;5012944;28;20064;-76
2022/04/30 11:27:12;;;;;;;7.55;6.40;;;;;;;22.35;36.41;99716.41;5012577;28;20057;-76
2022/04/30 11:29:52;;;;;;;10.38;7.20;;;;;;;22.60;36.16;99714.75;4995336;28;20026;-76
2022/04/30 11:32:36;;;;;;;7.63;6.55;;;;;;;22.66;36.78;99711.06;5012911;28;20036;-76
2022/04/30 11:35:04;;;;;;;5.90;5.30;;;;;;;22.09;36.29;99721.34;5012655;28;20049;-76
2022/04/30 11:37:40;;;;;;;6.32;5.63;;;;;;;21.88;36.04;99714.41;4994862;28;20073;-75
2022/04/30 11:40:07;;;;;;;8.10;5.75;;;;;;;21.96;35.86;99715.25;5012617;28;20030;-75
2022/04/30 11:42:33;;;;;;;6.80;5.10;;;;;;;22.14;36.23;99706.69;4994831;28;20032;-76
2022/04/30 11:44:58;;;;;;;6.00;4.93;;;;;;;22.10;35.42;99699.38;5005690;28;20097;-76
2022/04/30 11:47:24;;;;;;;5.43;4.93;;;;;;;22.26;36.27;99698.91;4993084;28;20080;-75
2022/04/30 11:50:02;;;;;;;6.03;5.43;;;;;;;22.24;36.22;99701.38;4992942;28;20034;-76
2022/04/30 11:52:27;;;;;;;4.95;4.43;;;;;;;22.42;35.49;99685.06;4975214;28;20042;-76
2022/04/30 11:54:53;;;;;;;5.90;5.03;;;;;;;22.62;34.53;99684.59;4992769;28;20112;-75
2022/04/30 11:57:19;;;;;;;5.88;4.70;;;;;;;22.34;35.19;99683.44;4992852;28;20405;-76